Time;durP1;ratioP1;P1;durP2;ratioP2;P2;SDS_P1;SDS_P2;PMS_P1;PMS_P2;Temp;Humidity;BMP_temperature;BMP_pressure;BME280_temperature;BME280_humidity;BME280_pressure;Samples;Min_cycle;Max_cycle;Signal;HPM_P1;HPM_P2
2021/05/07 00:00:22;;;;;;;1.40;1.40;;;;;;;2.99;100.00;99390.50;5024447;28;20393;-77
2021/05/07 00:03:27;;;;;;;1.40;1.40;;;;;;;3.01;100.00;99393.59;5025776;28;20040;-77
2021/05/07 00:06:34;;;;;;;0.80;0.80;;;;;;;3.04;100.00;99401.00;5025217;28;20352;-77
2021/05/07 00:09:38;;;;;;;1.00;1.00;;;;;;;3.06;100.00;99406.81;5025364;28;20037;-77
2021/05/07 00:12:45;;;;;;;1.30;1.30;;;;;;;3.04;100.00;99398.25;5025150;28;20044;-77
2021/05/07 00:15:49;;;;;;;0.57;0.57;;;;;;;3.07;100.00;99411.09;5023359;28;20064;-77
2021/05/07 00:18:57;;;;;;;1.30;1.20;;;;;;;3.04;100.00;99412.00;5022242;28;20387;-77
2021/05/07 00:22:00;;;;;;;3.63;1.35;;;;;;;3.00;100.00;99414.06;5025628;28;20044;-78
2021/05/07 00:25:05;;;;;;;1.67;1.58;;;;;;;2.96;100.00;99413.41;5023339;28;20293;-78
2021/05/07 00:28:12;;;;;;;1.20;1.20;;;;;;;2.94;100.00;99424.06;5023278;28;20044;-78
2021/05/07 00:31:17;;;;;;;1.45;0.98;;;;;;;2.94;100.00;99424.06;5023991;28;20060;-77
2021/05/07 00:34:23;;;;;;;1.00;1.00;;;;;;;2.95;100.00;99425.59;5022944;28;20067;-77
2021/05/07 00:37:27;;;;;;;1.15;1.15;;;;;;;2.99;100.00;99423.53;5026135;28;20044;-78
2021/05/07 00:40:34;;;;;;;1.48;1.40;;;;;;;3.01;100.00;99418.34;5027431;28;20051;-78
2021/05/07 00:43:40;;;;;;;1.33;1.33;;;;;;;3.03;100.00;99424.19;5028728;28;20051;-77
2021/05/07 00:46:47;;;;;;;1.20;1.20;;;;;;;3.03;100.00;99429.69;5025228;28;20273;-77
2021/05/07 00:49:50;;;;;;;1.42;1.40;;;;;;;3.02;100.00;99433.66;5024890;28;20659;-77
2021/05/07 00:52:59;;;;;;;1.50;1.27;;;;;;;3.06;100.00;99433.56;5026043;28;20238;-77
2021/05/07 00:56:04;;;;;;;1.30;1.30;;;;;;;3.11;100.00;99446.78;5014834;28;20040;-77
2021/05/07 00:59:08;;;;;;;2.58;1.33;;;;;;;3.15;100.00;99435.66;5023206;28;20051;-78
2021/05/07 01:02:12;;;;;;;1.23;1.23;;;;;;;3.21;100.00;99444.94;5032333;28;20052;-77
2021/05/07 01:05:17;;;;;;;1.38;1.20;;;;;;;3.26;100.00;99436.91;5021017;28;20039;-78
2021/05/07 01:08:22;;;;;;;0.82;0.82;;;;;;;3.33;100.00;99449.72;5019576;28;20201;-78
2021/05/07 01:11:26;;;;;;;2.80;1.45;;;;;;;3.37;100.00;99447.63;5019359;28;20854;-77
2021/05/07 01:14:32;;;;;;;2.58;2.40;;;;;;;3.42;100.00;99458.09;5021666;28;20052;-78
2021/05/07 01:17:38;;;;;;;1.20;1.13;;;;;;;3.46;100.00;99450.50;5020528;28;20048;-78
2021/05/07 01:20:42;;;;;;;1.50;1.40;;;;;;;3.46;100.00;99450.50;5019603;28;20051;-78
2021/05/07 01:23:47;;;;;;;0.75;0.75;;;;;;;3.49;100.00;99449.63;5020174;28;20064;-78
2021/05/07 01:26:53;;;;;;;1.05;1.05;;;;;;;3.51;100.00;99447.22;5019504;28;20107;-77
2021/05/07 01:29:58;;;;;;;1.50;1.13;;;;;;;3.51;100.00;99442.47;5020249;28;20167;-78
2021/05/07 01:33:05;;;;;;;1.52;1.40;;;;;;;3.54;100.00;99446.34;5022121;28;20048;-78
2021/05/07 01:36:11;;;;;;;1.38;1.38;;;;;;;3.53;100.00;99445.56;5025533;28;20051;-80
2021/05/07 01:39:16;;;;;;;5.00;1.60;;;;;;;3.51;100.00;99444.47;5024138;28;20040;-80
2021/05/07 01:42:19;;;;;;;1.10;1.10;;;;;;;3.51;100.00;99444.47;5022772;28;20317;-80
2021/05/07 01:45:31;;;;;;;1.58;1.42;;;;;;;3.51;100.00;99456.25;5022828;28;20066;-80
2021/05/07 01:48:36;;;;;;;8.80;1.83;;;;;;;3.43;100.00;99449.41;5021812;28;20052;-79
2021/05/07 01:51:40;;;;;;;1.00;1.00;;;;;;;3.34;100.00;99456.75;5045217;28;20043;-78
2021/05/07 01:54:44;;;;;;;1.52;1.48;;;;;;;3.25;100.00;99456.63;5053059;28;20047;-78
2021/05/07 01:57:47;;;;;;;1.33;1.23;;;;;;;3.20;100.00;99454.41;5053803;28;20048;-78
2021/05/07 02:00:51;;;;;;;1.58;1.40;;;;;;;3.19;100.00;99466.59;5053073;28;20095;-78
2021/05/07 02:03:55;;;;;;;3.00;1.92;;;;;;;3.14;100.00;99467.16;5052798;28;20044;-78
2021/05/07 02:06:58;;;;;;;14.32;1.55;;;;;;;3.10;100.00;99466.47;5052850;28;20401;-77
2021/05/07 02:10:11;;;;;;;2.28;0.73;;;;;;;3.07;100.00;99470.88;5052793;28;20056;-78
2021/05/07 02:13:15;;;;;;;1.30;1.20;;;;;;;2.99;100.00;99484.03;5051484;28;20055;-79
2021/05/07 02:16:19;;;;;;;6.90;1.33;;;;;;;2.98;100.00;99478.97;5052390;28;20060;-78
2021/05/07 02:19:22;;;;;;;0.75;0.75;;;;;;;3.01;100.00;99489.13;5051787;28;20048;-79
2021/05/07 02:22:27;;;;;;;0.88;0.73;;;;;;;2.99;100.00;99484.03;5052244;28;20044;-77
2021/05/07 02:25:30;;;;;;;1.40;1.38;;;;;;;3.02;100.00;99498.91;5052064;28;20051;-77
2021/05/07 02:28:34;;;;;;;1.20;1.20;;;;;;;3.01;100.00;99492.63;5053057;28;20055;-77
2021/05/07 02:31:38;;;;;;;0.80;0.80;;;;;;;3.00;100.00;99496.59;5052760;28;20417;-78
2021/05/07 02:34:41;;;;;;;0.90;0.90;;;;;;;2.92;100.00;99495.19;5051769;28;20508;-78
2021/05/07 02:37:45;;;;;;;0.70;0.70;;;;;;;2.84;100.00;99495.81;5052040;28;20048;-78
2021/05/07 02:40:48;;;;;;;2.15;2.05;;;;;;;2.76;100.00;99502.72;5051539;28;20047;-78
2021/05/07 02:43:51;;;;;;;10.18;2.00;;;;;;;2.71;100.00;99501.25;5052379;28;20048;-78
2021/05/07 02:47:03;;;;;;;1.55;1.55;;;;;;;2.65;100.00;99513.97;5052394;28;20040;-78
2021/05/07 02:50:08;;;;;;;3.10;1.55;;;;;;;2.61;100.00;99512.53;5031586;28;20048;-78
2021/05/07 02:53:12;;;;;;;0.93;0.93;;;;;;;2.55;100.00;99506.78;5032339;28;20060;-78
2021/05/07 02:56:16;;;;;;;1.25;1.25;;;;;;;2.52;100.00;99513.13;5032909;28;20060;-78
2021/05/07 02:59:19;;;;;;;1.00;1.00;;;;;;;2.44;100.00;99511.75;5031704;28;20052;-78
2021/05/07 03:02:23;;;;;;;1.15;1.15;;;;;;;2.40;100.00;99515.78;5032358;28;20049;-77
2021/05/07 03:05:27;;;;;;;1.27;1.27;;;;;;;2.29;100.00;99516.81;5032611;28;20390;-77
2021/05/07 03:08:30;;;;;;;1.20;1.20;;;;;;;2.18;100.00;99512.75;5031236;28;20052;-77
2021/05/07 03:11:33;;;;;;;0.98;0.98;;;;;;;2.03;100.00;99517.03;5031689;28;20056;-78
2021/05/07 03:14:37;;;;;;;2.85;1.13;;;;;;;1.90;100.00;99518.88;5030865;28;20080;-78
2021/05/07 03:17:41;;;;;;;10.52;1.63;;;;;;;1.81;100.00;99532.41;5031496;28;20041;-78
2021/05/07 03:20:46;;;;;;;1.23;1.23;;;;;;;1.76;100.00;99525.44;5031755;28;20044;-77
2021/05/07 03:23:49;;;;;;;1.50;1.50;;;;;;;1.70;100.00;99531.84;5030684;28;20199;-77
2021/05/07 03:26:52;;;;;;;0.82;0.82;;;;;;;1.61;100.00;99528.88;5032190;28;20045;-77
2021/05/07 03:29:56;;;;;;;2.05;1.95;;;;;;;1.56;100.00;99541.13;5031390;28;20053;-78
2021/05/07 03:33:04;;;;;;;1.88;1.67;;;;;;;1.48;100.00;99535.03;5031522;28;20061;-77
2021/05/07 03:36:08;;;;;;;1.88;1.77;;;;;;;1.39;100.00;99545.78;5054568;28;20064;-77
2021/05/07 03:39:11;;;;;;;0.88;0.88;;;;;;;1.35;100.00;99549.78;5031455;28;20048;-77
2021/05/07 03:42:15;;;;;;;1.02;1.02;;;;;;;1.29;100.00;99546.75;5031273;28;20044;-78
2021/05/07 03:45:18;;;;;;;1.25;1.25;;;;;;;1.33;100.00;99546.69;5032041;28;20049;-77
2021/05/07 03:48:23;;;;;;;1.40;1.40;;;;;;;1.39;100.00;99554.00;5031789;28;20386;-77
2021/05/07 03:51:27;;;;;;;1.10;1.10;;;;;;;1.44;100.00;99559.00;5032656;28;20045;-77
2021/05/07 03:54:30;;;;;;;0.85;0.85;;;;;;;1.45;100.00;99555.06;5035838;28;20063;-77
2021/05/07 03:57:34;;;;;;;1.20;1.20;;;;;;;1.43;100.00;99560.19;5035511;28;20048;-77
2021/05/07 04:00:38;;;;;;;1.15;1.15;;;;;;;1.40;100.00;99561.06;5035014;28;20048;-77
2021/05/07 04:03:42;;;;;;;0.88;0.88;;;;;;;1.38;100.00;99559.94;5035034;28;20048;-77
2021/05/07 04:06:45;;;;;;;1.30;1.30;;;;;;;1.39;100.00;99564.97;5034946;28;20052;-77
2021/05/07 04:09:54;;;;;;;1.10;1.10;;;;;;;1.30;100.00;99570.25;5035533;28;20524;-77
2021/05/07 04:16:01;;;;;;;1.55;1.55;;;;;;;1.11;100.00;99584.69;5035283;28;20394;-77
2021/05/07 04:19:05;;;;;;;0.95;0.95;;;;;;;1.00;100.00;99578.63;5034613;28;20584;-77
2021/05/07 04:22:08;;;;;;;1.13;1.13;;;;;;;0.94;100.00;99591.25;5035314;28;20873;-77
2021/05/07 04:25:12;;;;;;;1.00;1.00;;;;;;;0.85;100.00;99582.78;5034632;28;20064;-77
2021/05/07 04:28:16;;;;;;;1.15;1.15;;;;;;;0.78;100.00;99589.16;5034106;28;20053;-77
2021/05/07 04:31:19;;;;;;;1.42;1.42;;;;;;;0.73;100.00;99597.09;5034298;28;20052;-76
2021/05/07 04:34:22;;;;;;;1.02;1.02;;;;;;;0.71;100.00;99600.22;5034053;28;20045;-77
2021/05/07 04:37:26;;;;;;;1.05;1.05;;;;;;;0.75;100.00;99605.66;5033344;28;20041;-77
2021/05/07 04:40:29;;;;;;;1.13;1.13;;;;;;;0.69;100.00;99610.06;5034142;28;20409;-78
2021/05/07 04:43:33;;;;;;;1.00;1.00;;;;;;;0.63;100.00;99608.97;5033980;28;20048;-77
2021/05/07 04:46:36;;;;;;;1.20;1.20;;;;;;;0.58;100.00;99606.72;5034761;28;20045;-77
2021/05/07 04:49:39;;;;;;;1.15;1.15;;;;;;;0.54;100.00;99617.72;5034257;28;20076;-77
2021/05/07 04:52:43;;;;;;;1.13;1.13;;;;;;;0.52;100.00;99619.34;5034107;28;20783;-78
2021/05/07 04:55:46;;;;;;;1.10;1.10;;;;;;;0.52;100.00;99611.13;5033850;28;20056;-77
2021/05/07 04:58:49;;;;;;;1.00;1.00;;;;;;;0.55;100.00;99608.31;5033866;28;20044;-77
2021/05/07 05:01:53;;;;;;;1.30;1.30;;;;;;;0.46;100.00;99610.00;5033665;28;20277;-79
2021/05/07 05:04:57;;;;;;;1.40;1.40;;;;;;;0.44;100.00;99618.66;5034427;28;20386;-78
2021/05/07 05:08:00;;;;;;;1.20;1.20;;;;;;;0.45;100.00;99624.91;5034528;28;20052;-77
2021/05/07 05:11:04;;;;;;;0.95;0.95;;;;;;;0.43;100.00;99632.75;5034400;28;20064;-77
2021/05/07 05:14:07;;;;;;;1.30;1.30;;;;;;;0.44;100.00;99639.78;5033635;28;20052;-77
2021/05/07 05:17:10;;;;;;;1.40;1.40;;;;;;;0.43;100.00;99638.25;5034203;28;20532;-77
2021/05/07 05:20:14;;;;;;;1.30;1.30;;;;;;;0.44;100.00;99628.81;5033438;28;20045;-78
2021/05/07 05:23:17;;;;;;;1.30;1.30;;;;;;;0.44;100.00;99634.31;5033353;28;20040;-78
2021/05/07 05:26:20;;;;;;;1.10;1.10;;;;;;;0.49;100.00;99642.06;5033489;28;20044;-77
2021/05/07 05:29:24;;;;;;;2.75;2.50;;;;;;;0.58;100.00;99645.06;5034330;28;20056;-78
2021/05/07 05:32:27;;;;;;;1.17;1.17;;;;;;;0.61;100.00;99650.50;5034132;28;20052;-78
2021/05/07 05:35:30;;;;;;;1.08;1.08;;;;;;;0.63;100.00;99653.59;5033119;28;20052;-77
2021/05/07 05:38:34;;;;;;;1.50;1.50;;;;;;;0.67;100.00;99659.03;5033959;28;20049;-80
2021/05/07 05:41:37;;;;;;;1.00;1.00;;;;;;;0.75;100.00;99665.97;5032867;28;20052;-79
2021/05/07 05:44:40;;;;;;;1.23;1.23;;;;;;;0.86;100.00;99666.56;5033065;28;20044;-80
2021/05/07 05:47:44;;;;;;;1.08;1.08;;;;;;;0.90;100.00;99667.28;5038814;28;20056;-79
2021/05/07 05:50:50;;;;;;;1.75;1.65;;;;;;;1.01;100.00;99667.91;5033843;28;20480;-80
2021/05/07 05:53:54;;;;;;;1.35;1.25;;;;;;;1.14;100.00;99666.13;5032745;28;20048;-79
2021/05/07 05:56:57;;;;;;;1.25;1.25;;;;;;;1.22;100.00;99677.75;5033135;28;20052;-79
2021/05/07 06:00:00;;;;;;;1.25;1.25;;;;;;;1.36;100.00;99675.56;5033368;28;20044;-78
2021/05/07 06:03:04;;;;;;;1.13;1.13;;;;;;;1.47;100.00;99678.13;5032992;28;20056;-79
2021/05/07 06:06:07;;;;;;;1.08;1.08;;;;;;;1.58;100.00;99683.44;5031795;28;20052;-77
2021/05/07 06:09:11;;;;;;;1.70;1.60;;;;;;;1.66;100.00;99690.31;5032560;28;20398;-78
2021/05/07 06:12:14;;;;;;;0.73;0.73;;;;;;;1.72;100.00;99686.69;5033272;28;20064;-78
2021/05/07 06:15:19;;;;;;;0.85;0.85;;;;;;;1.82;100.00;99690.44;5031828;28;20064;-78
2021/05/07 06:18:22;;;;;;;1.45;1.45;;;;;;;2.07;100.00;99683.28;5032676;28;20045;-79
2021/05/07 06:21:26;;;;;;;0.60;0.60;;;;;;;2.22;100.00;99679.03;5033066;28;20060;-79
2021/05/07 06:24:29;;;;;;;0.95;0.95;;;;;;;2.36;100.00;99686.19;5033167;28;20048;-78
2021/05/07 06:27:32;;;;;;;1.33;1.25;;;;;;;2.51;100.00;99687.47;5032853;28;20045;-80
2021/05/07 06:30:36;;;;;;;1.20;1.20;;;;;;;2.58;100.00;99705.78;5033445;28;20396;-79
2021/05/07 06:33:39;;;;;;;0.80;0.80;;;;;;;2.65;100.00;99695.41;5034305;28;20048;-79
2021/05/07 06:36:42;;;;;;;0.88;0.88;;;;;;;2.78;100.00;99698.25;5034127;28;20048;-79
2021/05/07 06:39:46;;;;;;;1.00;1.00;;;;;;;2.99;100.00;99693.06;5033996;28;20045;-79
2021/05/07 06:42:49;;;;;;;0.90;0.90;;;;;;;3.41;100.00;99704.25;5033994;28;20520;-83
2021/05/07 06:45:52;;;;;;;0.82;0.82;;;;;;;3.58;100.00;99712.06;5033177;28;20044;-81
2021/05/07 06:48:56;;;;;;;0.73;0.73;;;;;;;3.54;100.00;99710.63;5032658;28;20045;-82
2021/05/07 06:51:59;;;;;;;0.80;0.80;;;;;;;3.58;100.00;99705.78;5033015;28;20421;-82
2021/05/07 06:55:04;;;;;;;0.82;0.82;;;;;;;3.55;100.00;99712.94;5032326;28;20508;-82
2021/05/07 06:58:07;;;;;;;0.90;0.90;;;;;;;3.60;100.00;99708.88;5032061;28;20044;-82
2021/05/07 07:01:11;;;;;;;0.70;0.70;;;;;;;3.68;100.00;99719.28;5032658;28;20048;-79
2021/05/07 07:04:15;;;;;;;0.75;0.75;;;;;;;3.74;100.00;99714.81;5032911;28;20397;-81
2021/05/07 07:07:19;;;;;;;0.80;0.80;;;;;;;3.94;100.00;99717.47;5033093;28;20052;-81
2021/05/07 07:10:22;;;;;;;1.20;1.20;;;;;;;4.12;100.00;99716.97;5032673;28;20056;-81
2021/05/07 07:13:27;;;;;;;0.47;0.47;;;;;;;4.36;100.00;99721.78;5032305;28;20044;-79
2021/05/07 07:16:31;;;;;;;0.57;0.57;;;;;;;4.78;100.00;99727.28;5031903;28;20401;-81
2021/05/07 07:19:36;;;;;;;0.50;0.50;;;;;;;5.20;100.00;99728.72;5031957;28;20048;-81
2021/05/07 07:22:39;;;;;;;0.50;0.50;;;;;;;5.33;100.00;99737.78;5032524;28;20072;-79
2021/05/07 07:25:43;;;;;;;0.52;0.52;;;;;;;5.56;100.00;99736.69;5048645;28;20397;-79
2021/05/07 07:28:53;;;;;;;0.30;0.30;;;;;;;5.59;100.00;99728.25;5055520;28;20052;-79
2021/05/07 07:31:57;;;;;;;0.50;0.50;;;;;;;5.64;100.00;99730.47;5056763;28;20056;-80
2021/05/07 07:35:03;;;;;;;0.40;0.40;;;;;;;5.81;100.00;99731.88;5068434;28;20047;-80
2021/05/07 07:38:06;;;;;;;0.30;0.30;;;;;;;5.87;100.00;99738.41;5076224;28;20044;-79
2021/05/07 07:41:10;;;;;;;0.30;0.30;;;;;;;6.06;100.00;99740.09;5064575;28;20055;-79
2021/05/07 07:44:15;;;;;;;0.38;0.38;;;;;;;6.17;100.00;99745.28;5062329;28;20524;-80
2021/05/07 07:47:18;;;;;;;0.40;0.40;;;;;;;6.35;100.00;99752.94;5059672;28;20052;-79
2021/05/07 07:50:24;;;;;;;0.30;0.30;;;;;;;6.36;100.00;99757.25;5038952;28;20065;-78
2021/05/07 07:53:28;;;;;;;0.40;0.40;;;;;;;6.22;100.00;99771.56;5035703;28;20052;-78
2021/05/07 07:56:32;;;;;;;0.30;0.30;;;;;;;6.15;100.00;99763.53;5036412;28;20049;-80
2021/05/07 07:59:36;;;;;;;0.30;0.30;;;;;;;6.26;100.00;99759.16;5041062;28;20044;-80
2021/05/07 08:02:40;;;;;;;0.65;0.43;;;;;;;6.32;100.00;99764.91;5036364;28;20052;-78
2021/05/07 08:05:43;;;;;;;0.15;0.15;;;;;;;6.54;100.00;99774.00;5060801;28;20072;-79
2021/05/07 08:08:47;;;;;;;0.30;0.30;;;;;;;6.36;100.00;99768.31;5036052;28;20044;-79
2021/05/07 08:11:52;;;;;;;0.30;0.30;;;;;;;6.29;100.00;99768.56;5046821;28;20060;-78
2021/05/07 08:14:57;;;;;;;0.25;0.25;;;;;;;6.33;100.00;99769.97;5047334;28;20060;-75
2021/05/07 08:18:00;;;;;;;0.50;0.50;;;;;;;6.51;100.00;99764.59;5047637;28;20045;-77
2021/05/07 08:21:04;;;;;;;0.30;0.30;;;;;;;6.18;100.00;99779.22;5038420;28;20409;-82
2021/05/07 08:24:09;;;;;;;0.40;0.40;;;;;;;6.36;100.00;99768.31;5047954;28;20049;-78
2021/05/07 08:27:13;;;;;;;0.30;0.30;;;;;;;6.60;100.00;99767.44;5059401;28;20049;-77
2021/05/07 08:30:16;;;;;;;0.35;0.35;;;;;;;6.86;100.00;99762.53;5036757;28;20052;-77
2021/05/07 08:33:20;;;;;;;0.25;0.25;;;;;;;6.73;100.00;99765.38;5036946;28;20041;-78
2021/05/07 08:36:25;;;;;;;0.13;0.13;;;;;;;7.12;100.00;99758.34;5036757;28;20043;-78
2021/05/07 08:39:28;;;;;;;0.40;0.40;;;;;;;7.22;100.00;99768.25;5046875;28;20053;-78
2021/05/07 08:42:33;;;;;;;0.43;0.43;;;;;;;7.13;100.00;99761.88;5046992;28;20048;-79
2021/05/07 08:45:37;;;;;;;0.30;0.30;;;;;;;7.36;100.00;99762.13;5058126;28;20040;-79
2021/05/07 08:48:43;;;;;;;0.10;0.10;;;;;;;7.76;100.00;99764.88;5036136;28;20049;-78
2021/05/07 08:51:46;;;;;;;0.20;0.20;;;;;;;7.51;100.00;99767.91;5036956;28;20048;-77
2021/05/07 08:54:50;;;;;;;0.30;0.30;;;;;;;7.46;100.00;99766.50;5034540;28;20056;-77
2021/05/07 08:57:53;;;;;;;0.20;0.20;;;;;;;7.43;100.00;99772.94;5057643;28;20064;-75
2021/05/07 09:00:56;;;;;;;0.20;0.20;;;;;;;7.39;100.00;99775.09;5034621;28;20053;-75
2021/05/07 09:04:08;;;;;;;0.10;0.10;;;;;;;7.79;100.00;99771.53;5034574;28;20501;-75
2021/05/07 09:07:12;;;;;;;0.25;0.25;;;;;;;8.29;100.00;99771.00;5034683;28;20072;-76
2021/05/07 09:10:15;;;;;;;0.10;0.10;;;;;;;8.50;100.00;99764.53;5034096;28;20044;-75
2021/05/07 09:13:21;;;;;;;1.48;1.15;;;;;;;8.38;100.00;99773.78;5044744;28;20425;-76
2021/05/07 09:16:28;;;;;;;0.20;0.20;;;;;;;8.54;100.00;99779.00;5046025;28;20052;-76
2021/05/07 09:19:37;;;;;;;0.40;0.40;;;;;;;8.90;100.00;99772.66;5045838;28;20056;-77
2021/05/07 09:22:42;;;;;;;0.10;0.10;;;;;;;9.04;100.00;99774.78;5045494;28;20040;-77
2021/05/07 09:25:51;;;;;;;0.20;0.20;;;;;;;9.11;100.00;99785.56;5035468;28;20397;-77
2021/05/07 09:28:55;;;;;;;0.20;0.20;;;;;;;9.34;100.00;99765.41;5056532;28;20397;-77
2021/05/07 09:32:03;;;;;;;0.20;0.20;;;;;;;9.71;100.00;99772.34;5034289;28;20052;-77
2021/05/07 09:35:09;;;;;;;0.20;0.20;;;;;;;9.97;100.00;99780.22;5035525;28;20516;-78
2021/05/07 09:38:16;;;;;;;0.10;0.10;;;;;;;10.00;100.00;99774.50;5034350;28;20450;-77
2021/05/07 09:41:20;;;;;;;0.20;0.20;;;;;;;10.08;100.00;99778.47;5057675;28;20048;-78
2021/05/07 09:44:26;;;;;;;0.28;0.20;;;;;;;10.50;100.00;99787.44;5034138;28;20254;-76
2021/05/07 09:47:31;;;;;;;0.10;0.10;;;;;;;10.36;100.00;99792.97;5033666;28;20070;-76
2021/05/07 09:50:40;;;;;;;0.75;0.22;;;;;;;9.89;100.00;99790.94;5033868;28;20060;-77
2021/05/07 09:53:44;;;;;;;0.20;0.20;;;;;;;9.49;100.00;99804.41;5034181;28;20069;-77
2021/05/07 09:56:48;;;;;;;0.20;0.20;;;;;;;9.13;100.00;99788.63;5033894;28;20076;-74
2021/05/07 09:59:53;;;;;;;0.30;0.30;;;;;;;8.81;100.00;99798.44;5033570;28;20064;-75
2021/05/07 10:02:57;;;;;;;0.20;0.20;;;;;;;8.61;100.00;99806.47;5034545;28;20060;-76
2021/05/07 10:06:01;;;;;;;0.30;0.30;;;;;;;8.86;100.00;99803.34;5033864;28;20068;-76
2021/05/07 10:09:07;;;;;;;0.35;0.35;;;;;;;9.40;100.00;99796.88;5033682;28;20053;-75
2021/05/07 10:12:14;;;;;;;0.10;0.10;;;;;;;10.00;100.00;99799.53;5033230;28;20044;-76
2021/05/07 10:15:26;;;;;;;0.30;0.30;;;;;;;10.61;100.00;99800.81;5034089;28;20069;-76
2021/05/07 10:18:33;;;;;;;0.13;0.13;;;;;;;10.38;100.00;99807.97;5033717;28;20052;-78
2021/05/07 10:21:40;;;;;;;0.10;0.10;;;;;;;9.89;100.00;99802.06;5033303;28;20134;-77
2021/05/07 10:24:44;;;;;;;0.30;0.15;;;;;;;9.42;100.00;99805.50;5033280;28;20060;-77
2021/05/07 10:27:53;;;;;;;0.52;0.28;;;;;;;8.96;100.00;99816.00;5043552;28;20064;-77
2021/05/07 10:31:05;;;;;;;0.10;0.10;;;;;;;8.70;100.00;99816.78;5033344;28;20048;-77
2021/05/07 10:34:09;;;;;;;;;;;;;;;8.83;100.00;99818.19;5033481;28;20864;-79
2021/05/07 10:37:13;;;;;;;0.10;0.10;;;;;;;9.47;100.00;99820.78;5043873;28;20361;-78
2021/05/07 10:40:26;;;;;;;0.20;0.20;;;;;;;10.28;100.00;99822.41;5042959;28;20048;-77
2021/05/07 10:43:44;;;;;;;0.75;0.40;;;;;;;10.19;100.00;99806.56;5032161;28;20048;-80
2021/05/07 10:47:09;;;;;;;0.10;0.10;;;;;;;10.04;100.00;99822.38;5034224;28;20501;-77
2021/05/07 10:50:15;;;;;;;0.15;0.15;;;;;;;9.82;100.00;99822.66;5032860;28;20049;-78
2021/05/07 10:53:26;;;;;;;0.10;0.10;;;;;;;9.71;100.00;99827.19;5043475;28;20409;-78
2021/05/07 10:56:36;;;;;;;0.15;0.15;;;;;;;9.85;100.00;99837.63;5033774;28;20052;-78
2021/05/07 11:00:04;;;;;;;0.25;0.25;;;;;;;10.20;100.00;99833.13;5033379;28;20048;-78
2021/05/07 11:03:19;;;;;;;0.20;0.20;;;;;;;10.44;100.00;99838.69;5037651;28;20052;-77
2021/05/07 11:06:58;;;;;;;0.50;0.20;;;;;;;10.56;100.00;99840.47;5037797;28;20497;-78
2021/05/07 11:10:08;;;;;;;0.10;0.10;;;;;;;10.63;100.00;99832.50;5047011;28;20048;-76
2021/05/07 11:13:13;;;;;;;0.17;0.17;;;;;;;10.81;100.00;99841.94;5070492;28;20051;-77
2021/05/07 11:16:17;;;;;;;0.10;0.10;;;;;;;10.96;100.00;99831.63;5050106;28;20052;-77
2021/05/07 11:19:27;;;;;;;0.47;0.10;;;;;;;11.02;100.00;99843.63;5048612;28;20068;-78
2021/05/07 11:22:31;;;;;;;0.10;0.10;;;;;;;11.16;100.00;99840.06;5058820;28;20052;-77
2021/05/07 11:25:34;;;;;;;0.10;0.10;;;;;;;10.97;100.00;99841.50;5046340;28;20096;-80
2021/05/07 11:28:45;;;;;;;0.17;0.17;;;;;;;10.84;100.00;99846.56;5047450;28;20056;-77
2021/05/07 11:31:48;;;;;;;0.52;0.30;;;;;;;10.94;100.00;99842.44;5058461;28;20117;-78
2021/05/07 11:35:07;;;;;;;0.10;0.10;;;;;;;11.59;100.00;99832.94;5045584;28;20056;-81
2021/05/07 11:38:11;;;;;;;0.10;0.10;;;;;;;11.66;100.00;99841.69;5046948;28;20041;-80
2021/05/07 11:41:26;;;;;;;0.10;0.10;;;;;;;11.60;100.00;99849.22;5046692;28;20044;-78
2021/05/07 11:44:30;;;;;;;0.13;0.13;;;;;;;11.77;100.00;99830.75;5055997;28;20144;-78
2021/05/07 11:47:39;;;;;;;0.10;0.10;;;;;;;11.28;100.00;99856.50;5045597;28;20045;-78
2021/05/07 11:50:43;;;;;;;0.10;0.10;;;;;;;11.01;100.00;99845.66;5058304;28;20063;-75
2021/05/07 11:53:54;;;;;;;1.85;0.20;;;;;;;10.96;100.00;99846.31;5057564;28;20064;-80
2021/05/07 11:56:58;;;;;;;0.57;0.25;;;;;;;10.75;100.00;99857.78;5059284;28;20044;-76
2021/05/07 12:00:06;;;;;;;0.20;0.20;;;;;;;10.54;100.00;99856.88;5059075;28;20386;-77
2021/05/07 12:03:14;;;;;;;0.10;0.10;;;;;;;10.37;100.00;99850.94;5058660;28;20051;-78
2021/05/07 12:06:24;;;;;;;0.20;0.20;;;;;;;10.29;100.00;99854.56;5057926;28;20495;-75
2021/05/07 12:09:28;;;;;;;0.30;0.30;;;;;;;10.22;100.00;99864.03;5058254;28;20052;-79
2021/05/07 12:12:42;;;;;;;0.13;0.10;;;;;;;10.21;100.00;99848.59;5036964;28;20402;-74
2021/05/07 12:15:48;;;;;;;0.10;0.10;;;;;;;10.29;100.00;99863.69;5039082;28;20069;-74
2021/05/07 12:18:52;;;;;;;0.10;0.10;;;;;;;10.27;100.00;99862.63;5044806;28;20044;-77
2021/05/07 12:21:56;;;;;;;0.10;0.10;;;;;;;10.25;100.00;99860.31;5057195;28;20056;-74
2021/05/07 12:25:14;;;;;;;0.10;0.10;;;;;;;10.30;100.00;99865.25;5056700;28;20052;-73
2021/05/07 12:28:22;;;;;;;0.10;0.10;;;;;;;10.32;100.00;99865.53;5057972;28;20099;-79
2021/05/07 12:31:32;;;;;;;0.10;0.10;;;;;;;10.61;100.00;99862.84;5057714;28;20052;-73
2021/05/07 12:34:39;;;;;;;0.10;0.10;;;;;;;10.81;100.00;99861.44;5058961;28;20044;-74
2021/05/07 12:37:45;;;;;;;0.10;0.10;;;;;;;11.34;100.00;99859.41;5059086;28;20088;-74
2021/05/07 12:40:50;;;;;;;0.10;0.10;;;;;;;11.94;100.00;99854.09;5057415;28;20056;-75
2021/05/07 12:43:57;;;;;;;0.20;0.20;;;;;;;12.24;100.00;99862.34;5055177;28;20048;-75
2021/05/07 12:47:00;;;;;;;0.13;0.13;;;;;;;12.34;100.00;99861.00;5061923;28;20401;-75
2021/05/07 12:50:04;;;;;;;0.10;0.10;;;;;;;12.32;100.00;99857.91;5078176;28;20047;-75
2021/05/07 12:53:12;;;;;;;0.10;0.10;;;;;;;12.19;100.00;99850.63;5076731;28;20063;-75
2021/05/07 12:56:16;;;;;;;0.35;0.30;;;;;;;12.20;100.00;99859.78;5075495;28;20047;-75
2021/05/07 12:59:20;;;;;;;0.60;0.25;;;;;;;12.32;100.00;99857.91;5076868;28;20051;-76
2021/05/07 13:02:24;;;;;;;0.30;0.20;;;;;;;12.31;100.00;99859.16;5075851;28;20073;-76
2021/05/07 13:05:27;;;;;;;0.10;0.10;;;;;;;12.23;100.00;99855.25;5076343;28;20052;-76
2021/05/07 13:08:31;;;;;;;2.22;0.10;;;;;;;12.21;100.00;99863.34;5076120;28;20044;-75
2021/05/07 13:11:35;;;;;;;0.20;0.20;;;;;;;12.28;100.00;99860.16;5075013;28;20047;-77
2021/05/07 13:14:39;;;;;;;0.55;0.40;;;;;;;12.30;100.00;99858.38;5078286;28;20052;-78
2021/05/07 13:17:42;;;;;;;1.27;0.38;;;;;;;12.39;100.00;99854.72;5078289;28;20043;-77
2021/05/07 13:20:46;;;;;;;1.30;0.82;;;;;;;11.84;100.00;99855.47;5076705;28;20047;-78
2021/05/07 13:23:50;;;;;;;0.47;0.47;;;;;;;11.28;100.00;99855.75;5056085;28;20112;-77
2021/05/07 13:26:53;;;;;;;0.95;0.40;;;;;;;11.19;100.00;99853.06;5057672;28;20048;-76
2021/05/07 13:29:57;;;;;;;0.93;0.52;;;;;;;11.13;100.00;99847.38;5057691;28;20063;-77
2021/05/07 13:33:01;;;;;;;0.93;0.43;;;;;;;11.10;100.00;99847.56;5057661;28;20052;-76
2021/05/07 13:36:05;;;;;;;0.30;0.30;;;;;;;11.28;100.00;99852.97;5057538;28;20048;-77
2021/05/07 13:39:08;;;;;;;1.17;0.40;;;;;;;11.79;100.00;99847.00;5058522;28;20040;-74
2021/05/07 13:42:12;;;;;;;2.83;0.43;;;;;;;12.00;100.00;99854.94;5057584;28;20044;-74
2021/05/07 13:45:15;;;;;;;0.57;0.52;;;;;;;12.14;100.00;99842.19;5058179;28;20047;-75
2021/05/07 13:48:19;;;;;;;3.53;0.43;;;;;;;12.31;100.00;99845.19;5058641;28;20040;-77
2021/05/07 13:51:26;;;;;;;0.20;0.20;;;;;;;12.64;100.00;99835.22;5058324;28;20040;-78
2021/05/07 13:54:29;;;;;;;0.50;0.47;;;;;;;13.13;100.00;99837.06;5058579;28;20488;-82
2021/05/07 13:57:34;;;;;;;0.50;0.35;;;;;;;12.94;100.00;99847.00;5057212;28;20063;-83
2021/05/07 14:00:37;;;;;;;0.73;0.50;;;;;;;12.49;100.00;99842.16;5057511;28;20515;-82
2021/05/07 14:03:41;;;;;;;0.40;0.10;;;;;;;12.69;100.00;99830.97;5057073;28;20044;-76
2021/05/07 14:06:44;;;;;;;0.20;0.20;;;;;;;12.94;100.00;99830.22;5057792;28;20048;-80
2021/05/07 14:09:49;;;;;;;0.22;0.22;;;;;;;12.83;100.00;99822.50;5057535;28;20155;-80
2021/05/07 14:12:53;;;;;;;0.15;0.15;;;;;;;12.68;100.00;99824.59;5057649;28;20492;-81
2021/05/07 14:15:56;;;;;;;1.17;0.43;;;;;;;11.96;100.00;99839.63;5056633;28;20382;-79
2021/05/07 14:18:59;;;;;;;0.50;0.32;;;;;;;11.50;100.00;99839.41;5057511;28;20056;-79
2021/05/07 14:22:03;;;;;;;2.28;0.20;;;;;;;11.26;100.00;99839.50;5057382;28;20048;-78
2021/05/07 14:25:07;;;;;;;0.10;0.10;;;;;;;11.21;100.00;99840.19;5058284;28;20048;-78
2021/05/07 14:28:10;;;;;;;0.38;0.38;;;;;;;11.37;100.00;99836.13;5057358;28;20060;-82
2021/05/07 14:31:14;;;;;;;0.55;0.22;;;;;;;11.59;100.00;99828.13;5057825;28;20056;-78